Nantucket, MA (02554)

6:32 PM EDT on June 03, 2015 (GMT -0400)
Hummock Pond | | Change Station
CLOSE
Current Station
Personal Weather Station
Location: Nantucket, MA
Elevation: 36 ft
Nearby Weather Stations

Elev 36 ft 41.27 °N, 70.12 °W | Updated 13 minutes ago

Clear
Clear
56.1 °F
Feels Like 56.1 °F
N
5.1
Wind Variable Wind from ENE

Today
High -- | Low -- °F
--% Chance of Precip.
Yesterday
High -- | Low -- °F
Precip. -- in
5:08 AM 8:08 PM
Full, 98% visible
Pressure 30.24 in
Visibility 10.0 miles
Clouds Clear
Dew Point 43 °F
Humidity 61%
Rainfall 0.01 in
Snow Depth Not available.
UV 2 out of 12
Pollen 8.80 out of 12
Air Quality Not available.
Flu Activity Local Activity
METAR KACK 032153Z 05010KT 10SM CLR 13/06 A3024 RMK AO2 SLP238 T01280056

More Conditions Fewer Conditions

Pressure 30.24 in
Visibility 10.0 miles
Clouds Clear
Dew Point 43 °F
Humidity 61%
Rainfall 0.01 in
Snow Depth Not available.
UV 2 out of 12
Pollen 8.80 out of 12
Air Quality Not available.
Flu Activity Local Activity
METAR KACK 032153Z 05010KT 10SM CLR 13/06 A3024 RMK AO2 SLP238 T01280056

More Conditions Fewer Conditions

10-Day Weather Forecast

×

Almanac

Astronomy

Jun. 03, 2015 Rise Set
Actual Time
Civil Twilight
Nautical Twilight
Astronomical Twilight
Moon
Length of Visible Light
Length of Day
Tomorrow will be .
, % of the Moon is Illuminated

Today's Extremes

State Highs State Lows

Community

WunderPhotos

Upload Photos

1,826,295 photos uploaded!

WunderBlogs® & News

Nearby

Air Quality

  Air Quality AQ Index Pollutant
Not available.

Snow Depth

Station Depth Elevation

Earthquake Activity

City Distance Mag. Time & Date
Minimum magnitude displayed is 2.5.

Coastal Water Temperatures

Place Temperature

Stations

Nearby Weather Stations

Station Location Temp. Windchill Dew Point Humidity Wind Precip. Elev Updated Type